sensor_id;sensor_type;location;lat;lon;timestamp;P1;durP1;ratioP1;P2;durP2;ratioP2
19207;SDS011;9737;59.466;18.036;2023-03-05T00:01:19;3.13;;;1.95;;
19207;SDS011;9737;59.466;18.036;2023-03-05T00:03:49;2.88;;;2.08;;
19207;SDS011;9737;59.466;18.036;2023-03-05T00:06:18;2.85;;;1.83;;
19207;SDS011;9737;59.466;18.036;2023-03-05T00:08:47;4.75;;;2.20;;
19207;SDS011;9737;59.466;18.036;2023-03-05T00:11:15;2.85;;;2.28;;
19207;SDS011;9737;59.466;18.036;2023-03-05T00:13:45;3.38;;;2.00;;
19207;SDS011;9737;59.466;18.036;2023-03-05T00:16:13;3.50;;;2.10;;
19207;SDS011;9737;59.466;18.036;2023-03-05T00:18:42;4.75;;;2.05;;
19207;SDS011;9737;59.466;18.036;2023-03-05T00:21:16;13.77;;;2.63;;
19207;SDS011;9737;59.466;18.036;2023-03-05T00:23:45;1.83;;;1.73;;
19207;SDS011;9737;59.466;18.036;2023-03-05T00:26:16;3.75;;;2.13;;
19207;SDS011;9737;59.466;18.036;2023-03-05T00:28:45;5.18;;;2.20;;
19207;SDS011;9737;59.466;18.036;2023-03-05T00:31:15;7.30;;;2.10;;
19207;SDS011;9737;59.466;18.036;2023-03-05T00:33:43;3.55;;;2.08;;
19207;SDS011;9737;59.466;18.036;2023-03-05T00:36:11;4.95;;;2.10;;
19207;SDS011;9737;59.466;18.036;2023-03-05T00:38:39;5.05;;;2.00;;
19207;SDS011;9737;59.466;18.036;2023-03-05T00:41:07;2.20;;;2.00;;
19207;SDS011;9737;59.466;18.036;2023-03-05T00:43:35;5.20;;;1.90;;
19207;SDS011;9737;59.466;18.036;2023-03-05T00:46:04;2.45;;;1.70;;
19207;SDS011;9737;59.466;18.036;2023-03-05T00:48:32;5.35;;;2.30;;
19207;SDS011;9737;59.466;18.036;2023-03-05T00:51:01;2.97;;;1.70;;
19207;SDS011;9737;59.466;18.036;2023-03-05T00:53:28;8.10;;;2.10;;
19207;SDS011;9737;59.466;18.036;2023-03-05T00:55:57;2.10;;;1.90;;
19207;SDS011;9737;59.466;18.036;2023-03-05T00:58:25;3.22;;;1.90;;
19207;SDS011;9737;59.466;18.036;2023-03-05T01:00:55;5.47;;;2.10;;
19207;SDS011;9737;59.466;18.036;2023-03-05T01:03:25;2.08;;;1.92;;
19207;SDS011;9737;59.466;18.036;2023-03-05T01:05:54;5.68;;;2.10;;
19207;SDS011;9737;59.466;18.036;2023-03-05T01:08:21;4.50;;;1.98;;
19207;SDS011;9737;59.466;18.036;2023-03-05T01:10:50;5.50;;;2.03;;
19207;SDS011;9737;59.466;18.036;2023-03-05T01:13:18;3.33;;;2.05;;
19207;SDS011;9737;59.466;18.036;2023-03-05T01:15:47;4.22;;;2.05;;
19207;SDS011;9737;59.466;18.036;2023-03-05T01:18:16;4.50;;;2.10;;
19207;SDS011;9737;59.466;18.036;2023-03-05T01:20:46;6.03;;;2.15;;
19207;SDS011;9737;59.466;18.036;2023-03-05T01:23:15;3.75;;;2.13;;
19207;SDS011;9737;59.466;18.036;2023-03-05T01:25:43;4.93;;;2.15;;
19207;SDS011;9737;59.466;18.036;2023-03-05T01:28:11;8.93;;;2.30;;
19207;SDS011;9737;59.466;18.036;2023-03-05T01:30:39;2.50;;;1.92;;
19207;SDS011;9737;59.466;18.036;2023-03-05T01:33:07;5.22;;;2.00;;
19207;SDS011;9737;59.466;18.036;2023-03-05T01:35:34;2.20;;;2.00;;
19207;SDS011;9737;59.466;18.036;2023-03-05T01:38:04;7.63;;;2.10;;
19207;SDS011;9737;59.466;18.036;2023-03-05T01:40:31;2.25;;;2.10;;
19207;SDS011;9737;59.466;18.036;2023-03-05T01:43:00;2.70;;;2.00;;
19207;SDS011;9737;59.466;18.036;2023-03-05T01:49:10;2.90;;;2.22;;
19207;SDS011;9737;59.466;18.036;2023-03-05T01:51:45;2.20;;;2.10;;
19207;SDS011;9737;59.466;18.036;2023-03-05T01:54:19;2.03;;;1.90;;
19207;SDS011;9737;59.466;18.036;2023-03-05T01:56:51;4.35;;;2.10;;
19207;SDS011;9737;59.466;18.036;2023-03-05T01:59:22;2.45;;;1.92;;
19207;SDS011;9737;59.466;18.036;2023-03-05T02:01:53;3.30;;;2.28;;
19207;SDS011;9737;59.466;18.036;2023-03-05T02:04:25;2.30;;;2.10;;
19207;SDS011;9737;59.466;18.036;2023-03-05T02:06:58;2.05;;;1.80;;
19207;SDS011;9737;59.466;18.036;2023-03-05T02:09:28;2.20;;;2.00;;
19207;SDS011;9737;59.466;18.036;2023-03-05T02:11:56;8.10;;;2.17;;
19207;SDS011;9737;59.466;18.036;2023-03-05T02:14:24;2.30;;;2.10;;
19207;SDS011;9737;59.466;18.036;2023-03-05T02:16:53;3.92;;;2.15;;
19207;SDS011;9737;59.466;18.036;2023-03-05T02:19:21;5.88;;;2.10;;
19207;SDS011;9737;59.466;18.036;2023-03-05T02:21:50;3.13;;;2.00;;
19207;SDS011;9737;59.466;18.036;2023-03-05T02:24:30;2.30;;;2.10;;
19207;SDS011;9737;59.466;18.036;2023-03-05T02:27:00;2.38;;;2.17;;
19207;SDS011;9737;59.466;18.036;2023-03-05T02:29:31;3.22;;;2.10;;
19207;SDS011;9737;59.466;18.036;2023-03-05T02:32:00;2.97;;;2.65;;
19207;SDS011;9737;59.466;18.036;2023-03-05T02:34:29;2.00;;;1.90;;
19207;SDS011;9737;59.466;18.036;2023-03-05T02:36:58;6.82;;;2.08;;
19207;SDS011;9737;59.466;18.036;2023-03-05T02:39:27;3.35;;;2.17;;
19207;SDS011;9737;59.466;18.036;2023-03-05T02:41:55;3.42;;;1.80;;
19207;SDS011;9737;59.466;18.036;2023-03-05T02:44:23;3.80;;;2.10;;
19207;SDS011;9737;59.466;18.036;2023-03-05T02:46:52;2.65;;;2.30;;
19207;SDS011;9737;59.466;18.036;2023-03-05T02:49:20;5.30;;;2.22;;
19207;SDS011;9737;59.466;18.036;2023-03-05T02:51:47;5.47;;;2.30;;
19207;SDS011;9737;59.466;18.036;2023-03-05T02:54:17;5.07;;;2.05;;
19207;SDS011;9737;59.466;18.036;2023-03-05T02:56:45;2.63;;;2.22;;
19207;SDS011;9737;59.466;18.036;2023-03-05T02:59:12;5.63;;;2.08;;
19207;SDS011;9737;59.466;18.036;2023-03-05T03:01:40;3.28;;;1.95;;
19207;SDS011;9737;59.466;18.036;2023-03-05T03:04:08;2.53;;;2.00;;
19207;SDS011;9737;59.466;18.036;2023-03-05T03:06:36;4.75;;;2.08;;
19207;SDS011;9737;59.466;18.036;2023-03-05T03:09:04;4.70;;;2.17;;
19207;SDS011;9737;59.466;18.036;2023-03-05T03:11:33;3.42;;;2.10;;
19207;SDS011;9737;59.466;18.036;2023-03-05T03:14:01;3.38;;;1.95;;
19207;SDS011;9737;59.466;18.036;2023-03-05T03:16:28;5.57;;;2.15;;
19207;SDS011;9737;59.466;18.036;2023-03-05T03:18:56;3.63;;;2.00;;
19207;SDS011;9737;59.466;18.036;2023-03-05T03:21:24;9.38;;;2.00;;
19207;SDS011;9737;59.466;18.036;2023-03-05T03:23:52;6.13;;;2.50;;
19207;SDS011;9737;59.466;18.036;2023-03-05T03:26:20;3.05;;;1.90;;
19207;SDS011;9737;59.466;18.036;2023-03-05T03:28:49;3.47;;;2.10;;
19207;SDS011;9737;59.466;18.036;2023-03-05T03:31:17;5.07;;;1.95;;
19207;SDS011;9737;59.466;18.036;2023-03-05T03:33:45;1.90;;;1.80;;
19207;SDS011;9737;59.466;18.036;2023-03-05T03:36:13;4.40;;;2.28;;
19207;SDS011;9737;59.466;18.036;2023-03-05T03:38:41;2.38;;;2.00;;
19207;SDS011;9737;59.466;18.036;2023-03-05T03:41:09;5.18;;;2.03;;
19207;SDS011;9737;59.466;18.036;2023-03-05T03:43:37;2.20;;;2.00;;
19207;SDS011;9737;59.466;18.036;2023-03-05T03:46:06;2.10;;;2.00;;
19207;SDS011;9737;59.466;18.036;2023-03-05T03:48:34;2.20;;;2.10;;
19207;SDS011;9737;59.466;18.036;2023-03-05T03:51:03;2.85;;;2.20;;
19207;SDS011;9737;59.466;18.036;2023-03-05T03:53:32;3.95;;;2.10;;
19207;SDS011;9737;59.466;18.036;2023-03-05T03:56:00;4.03;;;2.40;;
19207;SDS011;9737;59.466;18.036;2023-03-05T03:58:27;6.70;;;2.00;;
19207;SDS011;9737;59.466;18.036;2023-03-05T04:00:55;2.58;;;2.10;;
19207;SDS011;9737;59.466;18.036;2023-03-05T04:03:24;4.05;;;2.30;;
19207;SDS011;9737;59.466;18.036;2023-03-05T04:05:52;1.95;;;1.85;;
19207;SDS011;9737;59.466;18.036;2023-03-05T04:08:20;2.63;;;2.08;;
19207;SDS011;9737;59.466;18.036;2023-03-05T04:10:48;2.22;;;2.03;;
19207;SDS011;9737;59.466;18.036;2023-03-05T04:13:16;3.50;;;2.08;;
19207;SDS011;9737;59.466;18.036;2023-03-05T04:15:44;5.35;;;2.30;;
19207;SDS011;9737;59.466;18.036;2023-03-05T04:18:11;2.20;;;2.10;;
19207;SDS011;9737;59.466;18.036;2023-03-05T04:20:41;2.13;;;2.00;;
19207;SDS011;9737;59.466;18.036;2023-03-05T04:23:08;3.85;;;2.17;;
19207;SDS011;9737;59.466;18.036;2023-03-05T04:25:36;6.65;;;2.20;;
19207;SDS011;9737;59.466;18.036;2023-03-05T04:28:04;3.00;;;2.00;;
19207;SDS011;9737;59.466;18.036;2023-03-05T04:30:32;6.20;;;2.03;;
19207;SDS011;9737;59.466;18.036;2023-03-05T04:33:01;2.42;;;2.20;;
19207;SDS011;9737;59.466;18.036;2023-03-05T04:35:29;5.10;;;2.10;;
19207;SDS011;9737;59.466;18.036;2023-03-05T04:37:59;2.30;;;2.00;;
19207;SDS011;9737;59.466;18.036;2023-03-05T04:40:27;2.17;;;2.03;;
19207;SDS011;9737;59.466;18.036;2023-03-05T04:42:55;9.18;;;2.33;;
19207;SDS011;9737;59.466;18.036;2023-03-05T04:45:22;2.85;;;2.10;;
19207;SDS011;9737;59.466;18.036;2023-03-05T04:47:50;5.40;;;2.00;;
19207;SDS011;9737;59.466;18.036;2023-03-05T04:50:18;2.67;;;2.00;;
19207;SDS011;9737;59.466;18.036;2023-03-05T04:52:46;3.25;;;2.20;;
19207;SDS011;9737;59.466;18.036;2023-03-05T04:55:16;3.47;;;2.20;;
19207;SDS011;9737;59.466;18.036;2023-03-05T04:57:45;2.38;;;1.90;;
19207;SDS011;9737;59.466;18.036;2023-03-05T05:00:14;2.28;;;2.00;;
19207;SDS011;9737;59.466;18.036;2023-03-05T05:02:43;2.97;;;2.20;;
19207;SDS011;9737;59.466;18.036;2023-03-05T05:05:14;4.43;;;2.20;;
19207;SDS011;9737;59.466;18.036;2023-03-05T05:07:43;3.60;;;2.30;;
19207;SDS011;9737;59.466;18.036;2023-03-05T05:10:12;2.17;;;2.00;;
19207;SDS011;9737;59.466;18.036;2023-03-05T05:12:42;4.53;;;2.20;;
19207;SDS011;9737;59.466;18.036;2023-03-05T05:15:11;3.13;;;2.30;;
19207;SDS011;9737;59.466;18.036;2023-03-05T05:17:39;2.50;;;2.30;;
19207;SDS011;9737;59.466;18.036;2023-03-05T05:20:07;3.33;;;2.30;;
19207;SDS011;9737;59.466;18.036;2023-03-05T05:22:37;2.45;;;2.25;;
19207;SDS011;9737;59.466;18.036;2023-03-05T05:25:05;3.47;;;2.22;;
19207;SDS011;9737;59.466;18.036;2023-03-05T05:27:33;5.00;;;2.35;;
19207;SDS011;9737;59.466;18.036;2023-03-05T05:30:03;4.25;;;2.22;;
19207;SDS011;9737;59.466;18.036;2023-03-05T05:32:31;4.88;;;2.20;;
19207;SDS011;9737;59.466;18.036;2023-03-05T05:34:59;4.28;;;2.30;;
19207;SDS011;9737;59.466;18.036;2023-03-05T05:37:27;3.33;;;2.20;;
19207;SDS011;9737;59.466;18.036;2023-03-05T05:39:56;3.15;;;2.30;;
19207;SDS011;9737;59.466;18.036;2023-03-05T05:42:24;4.53;;;2.20;;
19207;SDS011;9737;59.466;18.036;2023-03-05T05:44:53;2.70;;;2.20;;
19207;SDS011;9737;59.466;18.036;2023-03-05T05:47:22;3.60;;;2.40;;
19207;SDS011;9737;59.466;18.036;2023-03-05T05:49:50;6.07;;;2.15;;
19207;SDS011;9737;59.466;18.036;2023-03-05T05:52:18;3.53;;;2.30;;
19207;SDS011;9737;59.466;18.036;2023-03-05T05:54:45;4.30;;;2.40;;
19207;SDS011;9737;59.466;18.036;2023-03-05T05:57:13;6.93;;;2.80;;
19207;SDS011;9737;59.466;18.036;2023-03-05T05:59:41;3.75;;;2.38;;
19207;SDS011;9737;59.466;18.036;2023-03-05T06:02:09;2.97;;;2.50;;
19207;SDS011;9737;59.466;18.036;2023-03-05T06:04:39;5.13;;;2.30;;
19207;SDS011;9737;59.466;18.036;2023-03-05T06:07:07;2.67;;;2.25;;
19207;SDS011;9737;59.466;18.036;2023-03-05T06:09:35;3.50;;;2.90;;
19207;SDS011;9737;59.466;18.036;2023-03-05T06:12:03;4.55;;;2.30;;
19207;SDS011;9737;59.466;18.036;2023-03-05T06:14:31;4.25;;;2.50;;
19207;SDS011;9737;59.466;18.036;2023-03-05T06:16:59;5.57;;;2.78;;
19207;SDS011;9737;59.466;18.036;2023-03-05T06:19:27;3.50;;;2.58;;
19207;SDS011;9737;59.466;18.036;2023-03-05T06:21:57;4.60;;;2.67;;
19207;SDS011;9737;59.466;18.036;2023-03-05T06:24:25;4.78;;;2.50;;
19207;SDS011;9737;59.466;18.036;2023-03-05T06:26:52;9.85;;;3.28;;
19207;SDS011;9737;59.466;18.036;2023-03-05T06:29:20;3.03;;;2.60;;
19207;SDS011;9737;59.466;18.036;2023-03-05T06:31:48;6.45;;;2.80;;
19207;SDS011;9737;59.466;18.036;2023-03-05T06:34:16;4.10;;;2.63;;
19207;SDS011;9737;59.466;18.036;2023-03-05T06:36:44;2.95;;;2.72;;
19207;SDS011;9737;59.466;18.036;2023-03-05T06:39:13;3.50;;;2.60;;
19207;SDS011;9737;59.466;18.036;2023-03-05T06:41:41;3.55;;;2.38;;
19207;SDS011;9737;59.466;18.036;2023-03-05T06:44:09;5.32;;;2.40;;
19207;SDS011;9737;59.466;18.036;2023-03-05T06:46:38;7.65;;;2.42;;
19207;SDS011;9737;59.466;18.036;2023-03-05T06:49:05;3.83;;;2.25;;
19207;SDS011;9737;59.466;18.036;2023-03-05T06:51:35;4.65;;;2.30;;
19207;SDS011;9737;59.466;18.036;2023-03-05T06:54:04;2.60;;;2.10;;
19207;SDS011;9737;59.466;18.036;2023-03-05T06:56:36;3.45;;;1.95;;
19207;SDS011;9737;59.466;18.036;2023-03-05T06:59:05;3.15;;;2.10;;
19207;SDS011;9737;59.466;18.036;2023-03-05T07:01:33;2.85;;;2.20;;
19207;SDS011;9737;59.466;18.036;2023-03-05T07:04:01;5.97;;;2.00;;
19207;SDS011;9737;59.466;18.036;2023-03-05T07:06:30;4.53;;;2.20;;
19207;SDS011;9737;59.466;18.036;2023-03-05T07:08:59;2.20;;;2.00;;
19207;SDS011;9737;59.466;18.036;2023-03-05T07:11:28;2.22;;;2.00;;
19207;SDS011;9737;59.466;18.036;2023-03-05T07:13:57;2.08;;;1.80;;
19207;SDS011;9737;59.466;18.036;2023-03-05T07:16:27;3.15;;;1.92;;
19207;SDS011;9737;59.466;18.036;2023-03-05T07:18:56;4.55;;;2.05;;
19207;SDS011;9737;59.466;18.036;2023-03-05T07:21:25;7.57;;;2.45;;
19207;SDS011;9737;59.466;18.036;2023-03-05T07:23:55;4.55;;;2.13;;
19207;SDS011;9737;59.466;18.036;2023-03-05T07:26:26;2.13;;;1.92;;
19207;SDS011;9737;59.466;18.036;2023-03-05T07:28:54;5.80;;;2.08;;
19207;SDS011;9737;59.466;18.036;2023-03-05T07:31:24;2.72;;;2.00;;
19207;SDS011;9737;59.466;18.036;2023-03-05T07:33:57;2.33;;;1.67;;
19207;SDS011;9737;59.466;18.036;2023-03-05T07:36:26;2.90;;;1.80;;
19207;SDS011;9737;59.466;18.036;2023-03-05T07:38:54;4.28;;;1.75;;
19207;SDS011;9737;59.466;18.036;2023-03-05T07:41:22;1.73;;;1.40;;
19207;SDS011;9737;59.466;18.036;2023-03-05T07:43:50;2.50;;;1.52;;
19207;SDS011;9737;59.466;18.036;2023-03-05T07:46:21;2.65;;;1.55;;
19207;SDS011;9737;59.466;18.036;2023-03-05T07:48:51;3.13;;;1.50;;
19207;SDS011;9737;59.466;18.036;2023-03-05T07:51:21;1.63;;;1.40;;
19207;SDS011;9737;59.466;18.036;2023-03-05T07:53:51;1.42;;;1.30;;
19207;SDS011;9737;59.466;18.036;2023-03-05T07:56:20;1.95;;;1.33;;
19207;SDS011;9737;59.466;18.036;2023-03-05T07:58:49;3.22;;;1.27;;
19207;SDS011;9737;59.466;18.036;2023-03-05T08:01:18;9.38;;;1.52;;
19207;SDS011;9737;59.466;18.036;2023-03-05T08:03:46;6.35;;;1.85;;
19207;SDS011;9737;59.466;18.036;2023-03-05T08:06:15;2.17;;;1.35;;
19207;SDS011;9737;59.466;18.036;2023-03-05T08:08:43;1.88;;;1.25;;
19207;SDS011;9737;59.466;18.036;2023-03-05T08:11:12;3.25;;;1.25;;
19207;SDS011;9737;59.466;18.036;2023-03-05T08:13:41;3.95;;;1.42;;
19207;SDS011;9737;59.466;18.036;2023-03-05T08:16:10;2.30;;;1.20;;
19207;SDS011;9737;59.466;18.036;2023-03-05T08:18:40;2.85;;;1.42;;
19207;SDS011;9737;59.466;18.036;2023-03-05T08:21:16;2.65;;;1.73;;
19207;SDS011;9737;59.466;18.036;2023-03-05T08:23:45;6.00;;;1.63;;
19207;SDS011;9737;59.466;18.036;2023-03-05T08:26:14;6.50;;;1.58;;
19207;SDS011;9737;59.466;18.036;2023-03-05T08:28:43;8.10;;;1.50;;
19207;SDS011;9737;59.466;18.036;2023-03-05T08:31:11;10.05;;;1.80;;
19207;SDS011;9737;59.466;18.036;2023-03-05T08:33:41;2.47;;;1.33;;
19207;SDS011;9737;59.466;18.036;2023-03-05T08:36:09;3.40;;;1.60;;
19207;SDS011;9737;59.466;18.036;2023-03-05T08:38:40;10.07;;;1.77;;
19207;SDS011;9737;59.466;18.036;2023-03-05T08:41:09;4.28;;;1.80;;
19207;SDS011;9737;59.466;18.036;2023-03-05T08:43:37;3.20;;;1.73;;
19207;SDS011;9737;59.466;18.036;2023-03-05T08:46:06;4.53;;;1.77;;
19207;SDS011;9737;59.466;18.036;2023-03-05T08:48:34;12.57;;;1.83;;
19207;SDS011;9737;59.466;18.036;2023-03-05T08:51:05;1.98;;;1.42;;
19207;SDS011;9737;59.466;18.036;2023-03-05T08:53:33;4.95;;;1.92;;
19207;SDS011;9737;59.466;18.036;2023-03-05T08:56:03;9.45;;;2.30;;
19207;SDS011;9737;59.466;18.036;2023-03-05T08:58:32;5.70;;;1.88;;
19207;SDS011;9737;59.466;18.036;2023-03-05T09:00:59;3.33;;;1.95;;
19207;SDS011;9737;59.466;18.036;2023-03-05T09:03:27;5.78;;;1.90;;
19207;SDS011;9737;59.466;18.036;2023-03-05T09:05:57;5.20;;;1.80;;
19207;SDS011;9737;59.466;18.036;2023-03-05T09:08:26;2.63;;;1.77;;
19207;SDS011;9737;59.466;18.036;2023-03-05T09:10:54;4.20;;;1.73;;
19207;SDS011;9737;59.466;18.036;2023-03-05T09:13:24;3.08;;;1.40;;
19207;SDS011;9737;59.466;18.036;2023-03-05T09:15:54;14.27;;;1.70;;
19207;SDS011;9737;59.466;18.036;2023-03-05T09:18:23;2.40;;;1.48;;
19207;SDS011;9737;59.466;18.036;2023-03-05T09:20:51;1.88;;;1.40;;
19207;SDS011;9737;59.466;18.036;2023-03-05T09:23:19;2.65;;;1.13;;
19207;SDS011;9737;59.466;18.036;2023-03-05T09:25:47;7.43;;;1.60;;
19207;SDS011;9737;59.466;18.036;2023-03-05T09:28:16;4.72;;;1.10;;
19207;SDS011;9737;59.466;18.036;2023-03-05T09:30:45;4.07;;;1.20;;
19207;SDS011;9737;59.466;18.036;2023-03-05T09:33:13;21.00;;;1.52;;
19207;SDS011;9737;59.466;18.036;2023-03-05T09:35:41;2.20;;;1.80;;
19207;SDS011;9737;59.466;18.036;2023-03-05T09:38:09;2.10;;;1.20;;
19207;SDS011;9737;59.466;18.036;2023-03-05T09:40:41;5.57;;;1.40;;
19207;SDS011;9737;59.466;18.036;2023-03-05T09:43:15;6.75;;;1.23;;
19207;SDS011;9737;59.466;18.036;2023-03-05T09:46:03;2.95;;;1.20;;
19207;SDS011;9737;59.466;18.036;2023-03-05T09:48:43;4.68;;;1.38;;
19207;SDS011;9737;59.466;18.036;2023-03-05T09:51:17;8.13;;;1.85;;
19207;SDS011;9737;59.466;18.036;2023-03-05T09:53:50;6.35;;;1.42;;
19207;SDS011;9737;59.466;18.036;2023-03-05T09:56:27;3.15;;;1.02;;
19207;SDS011;9737;59.466;18.036;2023-03-05T09:58:58;2.10;;;1.00;;
19207;SDS011;9737;59.466;18.036;2023-03-05T10:01:33;7.72;;;1.65;;
19207;SDS011;9737;59.466;18.036;2023-03-05T10:04:05;4.45;;;1.20;;
19207;SDS011;9737;59.466;18.036;2023-03-05T10:06:39;8.77;;;1.30;;
19207;SDS011;9737;59.466;18.036;2023-03-05T10:09:14;3.92;;;1.40;;
19207;SDS011;9737;59.466;18.036;2023-03-05T10:11:52;5.05;;;1.23;;
19207;SDS011;9737;59.466;18.036;2023-03-05T10:14:25;9.77;;;1.30;;
19207;SDS011;9737;59.466;18.036;2023-03-05T10:17:15;4.13;;;1.27;;
19207;SDS011;9737;59.466;18.036;2023-03-05T10:20:02;3.22;;;1.15;;
19207;SDS011;9737;59.466;18.036;2023-03-05T10:22:54;5.75;;;1.27;;
19207;SDS011;9737;59.466;18.036;2023-03-05T10:25:33;13.27;;;1.40;;
19207;SDS011;9737;59.466;18.036;2023-03-05T10:28:17;52.00;;;3.03;;
19207;SDS011;9737;59.466;18.036;2023-03-05T10:30:59;4.03;;;0.90;;
19207;SDS011;9737;59.466;18.036;2023-03-05T10:33:38;5.68;;;1.40;;
19207;SDS011;9737;59.466;18.036;2023-03-05T10:39:12;3.60;;;0.90;;
19207;SDS011;9737;59.466;18.036;2023-03-05T10:42:00;4.65;;;1.08;;
19207;SDS011;9737;59.466;18.036;2023-03-05T10:44:33;4.20;;;1.23;;
19207;SDS011;9737;59.466;18.036;2023-03-05T10:47:10;15.80;;;1.50;;
19207;SDS011;9737;59.466;18.036;2023-03-05T10:49:45;21.13;;;2.30;;
19207;SDS011;9737;59.466;18.036;2023-03-05T10:52:17;1.70;;;1.10;;
19207;SDS011;9737;59.466;18.036;2023-03-05T10:54:48;5.40;;;1.08;;
19207;SDS011;9737;59.466;18.036;2023-03-05T10:57:17;8.45;;;1.35;;
19207;SDS011;9737;59.466;18.036;2023-03-05T10:59:48;3.30;;;0.98;;
19207;SDS011;9737;59.466;18.036;2023-03-05T11:02:18;2.97;;;0.95;;
19207;SDS011;9737;59.466;18.036;2023-03-05T11:04:48;3.42;;;1.10;;
19207;SDS011;9737;59.466;18.036;2023-03-05T11:07:35;5.45;;;1.00;;
19207;SDS011;9737;59.466;18.036;2023-03-05T11:12:51;3.80;;;0.80;;
19207;SDS011;9737;59.466;18.036;2023-03-05T11:15:25;2.20;;;0.88;;
19207;SDS011;9737;59.466;18.036;2023-03-05T11:18:08;4.95;;;0.93;;
19207;SDS011;9737;59.466;18.036;2023-03-05T11:20:46;3.28;;;0.70;;
19207;SDS011;9737;59.466;18.036;2023-03-05T11:23:14;6.95;;;1.10;;
19207;SDS011;9737;59.466;18.036;2023-03-05T11:25:50;6.13;;;1.10;;
19207;SDS011;9737;59.466;18.036;2023-03-05T11:28:29;0.80;;;0.63;;
19207;SDS011;9737;59.466;18.036;2023-03-05T11:31:04;4.32;;;0.95;;
19207;SDS011;9737;59.466;18.036;2023-03-05T11:33:36;5.78;;;1.20;;
19207;SDS011;9737;59.466;18.036;2023-03-05T11:38:53;3.70;;;0.85;;
19207;SDS011;9737;59.466;18.036;2023-03-05T11:41:26;8.82;;;1.30;;
19207;SDS011;9737;59.466;18.036;2023-03-05T11:43:58;3.13;;;0.90;;
19207;SDS011;9737;59.466;18.036;2023-03-05T11:46:33;2.58;;;1.20;;
19207;SDS011;9737;59.466;18.036;2023-03-05T11:49:07;2.85;;;1.30;;
19207;SDS011;9737;59.466;18.036;2023-03-05T11:51:44;3.05;;;1.35;;
19207;SDS011;9737;59.466;18.036;2023-03-05T11:54:23;5.68;;;1.20;;
19207;SDS011;9737;59.466;18.036;2023-03-05T11:56:56;6.50;;;1.35;;
19207;SDS011;9737;59.466;18.036;2023-03-05T11:59:26;2.88;;;1.38;;
19207;SDS011;9737;59.466;18.036;2023-03-05T12:01:57;9.18;;;1.48;;
19207;SDS011;9737;59.466;18.036;2023-03-05T12:04:26;17.00;;;1.70;;
19207;SDS011;9737;59.466;18.036;2023-03-05T12:06:56;5.97;;;1.40;;
19207;SDS011;9737;59.466;18.036;2023-03-05T12:09:28;4.50;;;1.42;;
19207;SDS011;9737;59.466;18.036;2023-03-05T12:12:08;6.10;;;1.90;;
19207;SDS011;9737;59.466;18.036;2023-03-05T12:14:46;11.50;;;1.63;;
19207;SDS011;9737;59.466;18.036;2023-03-05T12:17:17;4.35;;;1.80;;
19207;SDS011;9737;59.466;18.036;2023-03-05T12:19:51;4.28;;;1.52;;
19207;SDS011;9737;59.466;18.036;2023-03-05T12:22:30;2.35;;;1.42;;
19207;SDS011;9737;59.466;18.036;2023-03-05T12:25:17;3.67;;;1.27;;
19207;SDS011;9737;59.466;18.036;2023-03-05T12:27:52;4.50;;;1.48;;
19207;SDS011;9737;59.466;18.036;2023-03-05T12:30:29;3.15;;;1.50;;
19207;SDS011;9737;59.466;18.036;2023-03-05T12:33:28;4.05;;;1.42;;
19207;SDS011;9737;59.466;18.036;2023-03-05T12:39:00;23.00;;;3.08;;
19207;SDS011;9737;59.466;18.036;2023-03-05T12:41:32;5.97;;;1.42;;
19207;SDS011;9737;59.466;18.036;2023-03-05T12:44:08;2.97;;;1.40;;
19207;SDS011;9737;59.466;18.036;2023-03-05T12:46:45;4.78;;;1.50;;
19207;SDS011;9737;59.466;18.036;2023-03-05T12:49:43;2.05;;;1.40;;
19207;SDS011;9737;59.466;18.036;2023-03-05T12:52:18;1.38;;;1.27;;
19207;SDS011;9737;59.466;18.036;2023-03-05T12:55:07;4.07;;;1.30;;
19207;SDS011;9737;59.466;18.036;2023-03-05T12:57:46;6.47;;;1.33;;
19207;SDS011;9737;59.466;18.036;2023-03-05T13:00:21;3.58;;;1.38;;
19207;SDS011;9737;59.466;18.036;2023-03-05T13:02:55;4.40;;;1.50;;
19207;SDS011;9737;59.466;18.036;2023-03-05T13:05:26;2.15;;;1.70;;
19207;SDS011;9737;59.466;18.036;2023-03-05T13:08:08;1.50;;;1.35;;
19207;SDS011;9737;59.466;18.036;2023-03-05T13:10:40;4.97;;;1.70;;
19207;SDS011;9737;59.466;18.036;2023-03-05T13:13:10;2.03;;;1.50;;
19207;SDS011;9737;59.466;18.036;2023-03-05T13:15:43;9.23;;;1.77;;
19207;SDS011;9737;59.466;18.036;2023-03-05T13:18:17;7.38;;;1.55;;
19207;SDS011;9737;59.466;18.036;2023-03-05T13:20:46;5.43;;;1.50;;
19207;SDS011;9737;59.466;18.036;2023-03-05T13:23:21;3.35;;;1.52;;
19207;SDS011;9737;59.466;18.036;2023-03-05T13:25:57;1.90;;;1.50;;
19207;SDS011;9737;59.466;18.036;2023-03-05T13:28:27;3.70;;;1.88;;
19207;SDS011;9737;59.466;18.036;2023-03-05T13:30:57;2.08;;;1.58;;
19207;SDS011;9737;59.466;18.036;2023-03-05T13:33:29;8.90;;;2.22;;
19207;SDS011;9737;59.466;18.036;2023-03-05T13:35:58;2.78;;;1.52;;
19207;SDS011;9737;59.466;18.036;2023-03-05T13:38:28;4.32;;;1.60;;
19207;SDS011;9737;59.466;18.036;2023-03-05T13:41:05;3.83;;;1.70;;
19207;SDS011;9737;59.466;18.036;2023-03-05T13:43:45;4.82;;;1.50;;
19207;SDS011;9737;59.466;18.036;2023-03-05T13:46:26;6.88;;;1.70;;
19207;SDS011;9737;59.466;18.036;2023-03-05T13:48:57;2.05;;;1.70;;
19207;SDS011;9737;59.466;18.036;2023-03-05T13:51:45;8.57;;;1.77;;
19207;SDS011;9737;59.466;18.036;2023-03-05T13:54:14;2.97;;;1.73;;
19207;SDS011;9737;59.466;18.036;2023-03-05T13:56:48;1.85;;;1.55;;
19207;SDS011;9737;59.466;18.036;2023-03-05T13:59:17;5.80;;;2.08;;
19207;SDS011;9737;59.466;18.036;2023-03-05T14:01:46;6.43;;;3.45;;
19207;SDS011;9737;59.466;18.036;2023-03-05T14:04:17;8.35;;;3.55;;
19207;SDS011;9737;59.466;18.036;2023-03-05T14:06:48;5.45;;;2.00;;
19207;SDS011;9737;59.466;18.036;2023-03-05T14:09:20;3.72;;;1.90;;
19207;SDS011;9737;59.466;18.036;2023-03-05T14:11:51;1.92;;;1.70;;
19207;SDS011;9737;59.466;18.036;2023-03-05T14:14:20;2.35;;;1.85;;
19207;SDS011;9737;59.466;18.036;2023-03-05T14:16:49;5.57;;;1.98;;
19207;SDS011;9737;59.466;18.036;2023-03-05T14:22:26;3.22;;;2.00;;
19207;SDS011;9737;59.466;18.036;2023-03-05T14:24:56;5.47;;;1.75;;
19207;SDS011;9737;59.466;18.036;2023-03-05T14:27:24;3.10;;;1.88;;
19207;SDS011;9737;59.466;18.036;2023-03-05T14:29:52;2.83;;;1.67;;
19207;SDS011;9737;59.466;18.036;2023-03-05T14:32:22;5.00;;;2.50;;
19207;SDS011;9737;59.466;18.036;2023-03-05T14:34:56;3.92;;;2.00;;
19207;SDS011;9737;59.466;18.036;2023-03-05T14:37:28;4.50;;;1.80;;
19207;SDS011;9737;59.466;18.036;2023-03-05T14:39:59;2.00;;;1.60;;
19207;SDS011;9737;59.466;18.036;2023-03-05T14:42:32;2.25;;;1.80;;
19207;SDS011;9737;59.466;18.036;2023-03-05T14:45:12;4.38;;;2.58;;
19207;SDS011;9737;59.466;18.036;2023-03-05T14:47:41;2.50;;;1.90;;
19207;SDS011;9737;59.466;18.036;2023-03-05T14:50:13;4.82;;;2.40;;
19207;SDS011;9737;59.466;18.036;2023-03-05T14:52:42;5.80;;;3.08;;
19207;SDS011;9737;59.466;18.036;2023-03-05T14:55:14;4.88;;;3.00;;
19207;SDS011;9737;59.466;18.036;2023-03-05T14:57:43;6.32;;;2.70;;
19207;SDS011;9737;59.466;18.036;2023-03-05T15:00:15;6.35;;;3.08;;
19207;SDS011;9737;59.466;18.036;2023-03-05T15:02:43;6.88;;;3.17;;
19207;SDS011;9737;59.466;18.036;2023-03-05T15:05:13;5.82;;;3.38;;
19207;SDS011;9737;59.466;18.036;2023-03-05T15:07:43;8.23;;;3.28;;
19207;SDS011;9737;59.466;18.036;2023-03-05T15:10:13;5.72;;;2.50;;
19207;SDS011;9737;59.466;18.036;2023-03-05T15:12:41;4.55;;;2.42;;
19207;SDS011;9737;59.466;18.036;2023-03-05T15:15:10;4.95;;;1.85;;
19207;SDS011;9737;59.466;18.036;2023-03-05T15:17:40;8.13;;;3.60;;
19207;SDS011;9737;59.466;18.036;2023-03-05T15:20:10;8.77;;;2.28;;
19207;SDS011;9737;59.466;18.036;2023-03-05T15:22:43;6.90;;;3.10;;
19207;SDS011;9737;59.466;18.036;2023-03-05T15:25:11;3.45;;;2.50;;
19207;SDS011;9737;59.466;18.036;2023-03-05T15:27:39;3.75;;;2.35;;